Aviation Digital Data Service (ADDS)

Output produced by TAFs form (0157 UTC 18 October 2017)
found at http://www.aviationweather.gov/adds/tafs/
 
KMRB 172320Z 1800/1824 VRB03KT P6SM SKC 
     FM181800 17005KT P6SM FEW250 
     FM182300 VRB03KT P6SM FEW250